createdAt,value
2018-08-06T00:00:21.927Z,2.53
2018-08-06T00:02:50.305Z,2.13
2018-08-06T00:05:18.836Z,2.83
2018-08-06T00:07:47.351Z,4.00
2018-08-06T00:10:17.316Z,4.27
2018-08-06T00:12:45.654Z,4.33
2018-08-06T00:15:14.766Z,2.93
2018-08-06T00:17:43.442Z,2.47
2018-08-06T00:20:12.916Z,1.47
2018-08-06T00:22:41.690Z,1.97
2018-08-06T00:25:11.417Z,1.60
2018-08-06T00:27:40.187Z,1.80
2018-08-06T00:30:10.655Z,1.67
2018-08-06T00:32:40.047Z,2.13
2018-08-06T00:35:08.711Z,1.70
2018-08-06T00:37:37.190Z,1.80
2018-08-06T00:40:07.504Z,2.03
2018-08-06T00:42:35.832Z,2.07
2018-08-06T00:45:04.966Z,1.87
2018-08-06T00:47:33.271Z,2.10
2018-08-06T00:50:01.573Z,1.80
2018-08-06T00:52:29.848Z,1.93
2018-08-06T00:54:58.150Z,2.00
2018-08-06T00:57:26.465Z,1.83
2018-08-06T00:59:54.766Z,2.00
2018-08-06T01:02:23.060Z,1.77
2018-08-06T01:04:51.360Z,1.63
2018-08-06T01:07:19.660Z,1.97
2018-08-06T01:09:47.994Z,1.80
2018-08-06T01:12:16.286Z,1.90
2018-08-06T01:14:44.578Z,1.73
2018-08-06T01:17:12.866Z,2.00
2018-08-06T01:19:41.260Z,1.67
2018-08-06T01:22:09.566Z,1.83
2018-08-06T01:24:37.855Z,1.80
2018-08-06T01:27:06.578Z,1.70
2018-08-06T01:29:34.883Z,1.70
2018-08-06T01:32:03.166Z,2.00
2018-08-06T01:34:31.541Z,2.47
2018-08-06T01:36:59.882Z,3.40
2018-08-06T01:39:28.195Z,4.80
2018-08-06T01:41:56.490Z,6.10
2018-08-06T01:44:24.799Z,5.73
2018-08-06T01:46:53.094Z,5.03
2018-08-06T01:49:21.387Z,5.27
2018-08-06T01:51:49.678Z,5.20
2018-08-06T01:54:17.967Z,5.33
2018-08-06T01:56:46.298Z,5.90
2018-08-06T01:59:14.662Z,6.47
2018-08-06T02:01:42.962Z,8.20
2018-08-06T02:04:11.315Z,10.23
2018-08-06T02:06:39.372Z,9.97
2018-08-06T02:09:08.322Z,10.80
2018-08-06T02:11:36.778Z,11.50
2018-08-06T02:14:05.281Z,9.40
2018-08-06T02:16:33.627Z,9.83
2018-08-06T02:19:01.935Z,12.17
2018-08-06T02:21:30.283Z,9.43
2018-08-06T02:23:58.574Z,9.97
2018-08-06T02:26:26.894Z,7.83
2018-08-06T02:28:55.188Z,10.23
2018-08-06T02:31:23.235Z,10.33
2018-08-06T02:33:51.566Z,35.87
2018-08-06T02:36:19.950Z,27.43
2018-08-06T02:38:48.260Z,31.33
2018-08-06T02:41:16.563Z,36.40
2018-08-06T02:43:44.895Z,32.20
2018-08-06T02:46:13.208Z,31.20
2018-08-06T02:48:41.501Z,29.00
2018-08-06T02:51:09.795Z,28.97
2018-08-06T02:53:38.193Z,24.53
2018-08-06T02:56:07.294Z,24.70
2018-08-06T02:58:35.609Z,21.10
2018-08-06T03:01:04.059Z,24.70
2018-08-06T03:03:32.374Z,25.70
2018-08-06T03:06:00.688Z,19.63
2018-08-06T03:08:29.006Z,21.30
2018-08-06T03:10:57.310Z,21.43
2018-08-06T03:13:25.659Z,19.43
2018-08-06T03:15:53.960Z,20.67
2018-08-06T03:18:22.291Z,19.77
2018-08-06T03:20:50.587Z,23.83
2018-08-06T03:23:18.930Z,32.27
2018-08-06T03:25:47.226Z,35.13
2018-08-06T03:28:15.554Z,37.57
2018-08-06T03:30:43.861Z,33.07
2018-08-06T03:33:12.179Z,21.80
2018-08-06T03:35:40.665Z,31.47
2018-08-06T03:38:08.946Z,31.33
2018-08-06T03:40:37.276Z,25.70
2018-08-06T03:43:05.614Z,22.23
2018-08-06T03:45:33.944Z,23.17
2018-08-06T03:48:02.271Z,25.73
2018-08-06T03:50:30.585Z,24.30
2018-08-06T03:52:58.934Z,25.50
2018-08-06T03:55:27.234Z,23.97
2018-08-06T03:57:55.543Z,19.73
2018-08-06T04:00:23.958Z,20.40
2018-08-06T04:02:52.314Z,17.43
2018-08-06T04:05:20.646Z,17.03
2018-08-06T04:07:48.992Z,17.47
2018-08-06T04:10:17.773Z,17.27
2018-08-06T04:12:46.339Z,14.00
2018-08-06T04:15:14.658Z,13.80
2018-08-06T04:17:43.576Z,14.57
2018-08-06T04:20:12.719Z,12.67
2018-08-06T04:22:41.809Z,13.50
2018-08-06T04:25:10.127Z,13.07
2018-08-06T04:27:38.495Z,13.10
2018-08-06T04:30:07.644Z,11.20
2018-08-06T04:32:35.946Z,11.57
2018-08-06T04:35:04.428Z,10.00
2018-08-06T04:37:32.718Z,11.43
2018-08-06T04:40:01.031Z,12.33
2018-08-06T04:42:29.507Z,10.70
2018-08-06T04:44:57.791Z,9.43
2018-08-06T04:47:26.087Z,9.90
2018-08-06T04:49:54.380Z,9.83
2018-08-06T04:52:22.682Z,9.67
2018-08-06T04:54:50.968Z,8.53
2018-08-06T04:57:19.286Z,8.90
2018-08-06T04:59:47.673Z,9.10
2018-08-06T05:02:15.895Z,8.17
2018-08-06T05:04:44.203Z,7.43
2018-08-06T05:07:12.632Z,7.57
2018-08-06T05:09:44.401Z,7.20
2018-08-06T05:12:12.706Z,7.37
2018-08-06T05:14:41.675Z,7.77
2018-08-06T05:17:09.963Z,6.50
2018-08-06T05:19:38.612Z,5.87
2018-08-06T05:22:07.404Z,6.13
2018-08-06T05:24:35.736Z,5.57
2018-08-06T05:27:04.022Z,5.30
2018-08-06T05:29:32.402Z,5.70
2018-08-06T05:32:00.719Z,5.43
2018-08-06T05:34:29.006Z,5.73
2018-08-06T05:36:57.302Z,5.10
2018-08-06T05:39:25.389Z,5.20
2018-08-06T05:41:53.663Z,5.00
2018-08-06T05:44:21.973Z,4.73
2018-08-06T05:46:50.254Z,5.07
2018-08-06T05:49:18.566Z,5.10
2018-08-06T05:51:46.882Z,5.17
2018-08-06T05:54:15.189Z,3.67
2018-08-06T05:56:43.473Z,3.90
2018-08-06T05:59:11.782Z,3.90
2018-08-06T06:01:40.123Z,3.23
2018-08-06T06:04:08.459Z,2.53
2018-08-06T06:06:36.774Z,2.73
2018-08-06T06:09:07.835Z,2.50
2018-08-06T06:11:36.268Z,2.20
2018-08-06T06:14:05.115Z,2.90
2018-08-06T06:16:33.442Z,2.30
2018-08-06T06:19:01.808Z,2.47
2018-08-06T06:21:30.356Z,7.03
2018-08-06T06:23:58.698Z,15.97
2018-08-06T06:26:27.068Z,8.23
2018-08-06T06:28:55.389Z,6.80
2018-08-06T06:31:24.281Z,4.37
2018-08-06T06:33:52.947Z,3.90
2018-08-06T06:36:21.279Z,3.33
2018-08-06T06:38:49.754Z,3.00
2018-08-06T06:41:18.104Z,2.87
2018-08-06T06:43:46.403Z,2.80
2018-08-06T06:46:14.762Z,2.80
2018-08-06T06:48:43.092Z,2.80
2018-08-06T06:51:11.402Z,2.83
2018-08-06T06:53:39.754Z,3.07
2018-08-06T06:56:08.055Z,2.70
2018-08-06T06:58:36.364Z,2.60
2018-08-06T07:01:04.677Z,5.30
2018-08-06T07:03:32.971Z,4.40
2018-08-06T07:06:01.263Z,3.80
2018-08-06T07:08:29.580Z,3.20
2018-08-06T07:10:57.922Z,2.67
2018-08-06T07:13:26.218Z,3.30
2018-08-06T07:15:54.558Z,3.00
2018-08-06T07:18:22.942Z,2.70
2018-08-06T07:20:51.261Z,2.47
2018-08-06T07:23:19.559Z,2.30
2018-08-06T07:25:47.938Z,2.53
2018-08-06T07:28:16.260Z,2.67
2018-08-06T07:30:44.669Z,2.57
2018-08-06T07:33:12.974Z,2.33
2018-08-06T07:35:41.430Z,2.53
2018-08-06T07:38:09.715Z,2.37
2018-08-06T07:40:37.802Z,2.07
2018-08-06T07:43:06.210Z,25.43
2018-08-06T07:45:34.472Z,13.00
2018-08-06T07:48:02.998Z,18.23
2018-08-06T07:50:31.058Z,9.63
2018-08-06T07:52:59.331Z,5.40
2018-08-06T07:55:27.624Z,5.43
2018-08-06T07:57:55.930Z,6.43
2018-08-06T08:00:24.236Z,5.63
2018-08-06T08:02:52.558Z,8.60
2018-08-06T08:05:20.872Z,17.23
2018-08-06T08:07:49.303Z,7.30
2018-08-06T08:10:19.430Z,7.43
2018-08-06T08:12:47.734Z,7.00
2018-08-06T08:15:18.148Z,7.43
2018-08-06T08:17:47.330Z,6.73
2018-08-06T08:20:16.801Z,6.60
2018-08-06T08:22:45.095Z,6.83
2018-08-06T08:25:15.634Z,6.43
2018-08-06T08:27:44.308Z,6.43
2018-08-06T08:30:13.840Z,6.80
2018-08-06T08:32:42.190Z,5.80
2018-08-06T08:35:11.207Z,6.23
2018-08-06T08:37:39.551Z,6.77
2018-08-06T08:40:13.802Z,5.63
2018-08-06T08:42:42.183Z,6.50
2018-08-06T08:45:12.602Z,5.70
2018-08-06T08:47:41.711Z,5.97
2018-08-06T08:50:13.506Z,6.20
2018-08-06T08:52:42.298Z,5.90
2018-08-06T08:55:11.955Z,5.73
2018-08-06T08:57:40.253Z,5.87
2018-08-06T09:00:11.781Z,6.00
2018-08-06T09:02:40.139Z,6.20
2018-08-06T09:05:08.442Z,5.80
2018-08-06T09:07:37.710Z,5.50
2018-08-06T09:10:07.233Z,5.53
2018-08-06T09:12:35.609Z,5.63
2018-08-06T09:15:05.549Z,5.57
2018-08-06T09:17:33.851Z,5.17
2018-08-06T09:20:02.190Z,5.60
2018-08-06T09:22:30.490Z,5.50
2018-08-06T09:24:58.810Z,5.23
2018-08-06T09:27:27.114Z,5.47
2018-08-06T09:29:55.449Z,5.20
2018-08-06T09:32:23.765Z,5.60
2018-08-06T09:34:52.067Z,5.13
2018-08-06T09:37:20.365Z,4.73
2018-08-06T09:39:48.635Z,5.23
2018-08-06T09:42:16.959Z,5.10
2018-08-06T09:44:45.238Z,5.00
2018-08-06T09:47:13.547Z,4.80
2018-08-06T09:49:41.851Z,4.90
2018-08-06T09:52:10.153Z,4.97
2018-08-06T09:54:38.434Z,4.67
2018-08-06T09:57:06.896Z,5.50
2018-08-06T09:59:35.151Z,5.37
2018-08-06T10:02:03.434Z,4.93
2018-08-06T10:04:31.514Z,5.43
2018-08-06T10:06:59.833Z,5.80
2018-08-06T10:09:28.158Z,10.67
2018-08-06T10:11:56.501Z,20.93
2018-08-06T10:14:24.763Z,30.50
2018-08-06T10:16:53.169Z,21.93
2018-08-06T10:19:21.526Z,26.57
2018-08-06T10:21:49.873Z,23.57
2018-08-06T10:24:18.189Z,19.93
2018-08-06T10:26:46.515Z,20.43
2018-08-06T10:29:14.819Z,25.03
2018-08-06T10:31:43.137Z,20.37
2018-08-06T10:34:11.458Z,20.47
2018-08-06T10:36:39.836Z,26.47
2018-08-06T10:39:09.902Z,29.13
2018-08-06T10:41:38.721Z,24.60
2018-08-06T10:44:07.059Z,26.97
2018-08-06T10:46:35.432Z,26.47
2018-08-06T10:49:03.743Z,30.13
2018-08-06T10:51:32.037Z,28.90
2018-08-06T10:54:00.422Z,32.53
2018-08-06T10:56:28.719Z,26.10
2018-08-06T10:58:57.050Z,25.43
2018-08-06T11:01:25.411Z,22.73
2018-08-06T11:03:53.718Z,24.07
2018-08-06T11:06:22.018Z,22.87
2018-08-06T11:08:50.368Z,23.97
2018-08-06T11:11:18.714Z,25.03
2018-08-06T11:13:47.414Z,23.97
2018-08-06T11:16:15.731Z,24.63
2018-08-06T11:18:44.123Z,26.70
2018-08-06T11:21:12.530Z,25.13
2018-08-06T11:23:40.831Z,23.73
2018-08-06T11:26:09.136Z,23.00
2018-08-06T11:28:37.227Z,24.23
2018-08-06T11:31:05.485Z,24.40
2018-08-06T11:33:33.805Z,23.73
2018-08-06T11:36:02.116Z,24.17
2018-08-06T11:38:30.418Z,24.17
2018-08-06T11:40:58.742Z,22.63
2018-08-06T11:43:27.043Z,21.33
2018-08-06T11:45:55.395Z,21.43
2018-08-06T11:48:23.718Z,19.77
2018-08-06T11:50:52.047Z,19.57
2018-08-06T11:53:20.339Z,19.93
2018-08-06T11:55:48.653Z,19.17
2018-08-06T11:58:16.958Z,18.90
2018-08-06T12:00:45.258Z,17.83
2018-08-06T12:03:13.587Z,18.13
2018-08-06T12:05:41.887Z,17.80
2018-08-06T12:08:10.208Z,17.17
2018-08-06T12:10:38.498Z,17.30
2018-08-06T12:13:06.798Z,18.50
2018-08-06T12:15:35.122Z,18.17
2018-08-06T12:18:03.439Z,18.73
2018-08-06T12:20:31.791Z,20.70
2018-08-06T12:23:00.107Z,20.40
2018-08-06T12:25:28.410Z,23.07
2018-08-06T12:27:56.733Z,20.73
2018-08-06T12:30:25.057Z,21.90
2018-08-06T12:32:54.171Z,22.10
2018-08-06T12:35:22.486Z,24.37
2018-08-06T12:37:50.806Z,23.30
2018-08-06T12:40:21.379Z,24.10
2018-08-06T12:42:49.763Z,24.73
2018-08-06T12:45:18.434Z,24.57
2018-08-06T12:47:47.205Z,27.20
2018-08-06T12:50:16.105Z,26.20
2018-08-06T12:52:44.650Z,26.30
2018-08-06T12:55:14.166Z,28.43
2018-08-06T12:57:43.150Z,26.97
2018-08-06T13:00:14.911Z,27.43
2018-08-06T13:02:43.206Z,29.13
2018-08-06T13:05:11.854Z,30.70
2018-08-06T13:07:40.478Z,30.37
2018-08-06T13:10:08.815Z,28.37
2018-08-06T13:12:38.340Z,29.83
2018-08-06T13:15:07.634Z,29.77
2018-08-06T13:17:35.951Z,31.67
2018-08-06T13:20:05.709Z,27.83
2018-08-06T13:22:34.004Z,30.30
2018-08-06T13:25:02.344Z,32.93
2018-08-06T13:27:31.172Z,31.07
2018-08-06T13:29:59.462Z,29.03
2018-08-06T13:32:27.771Z,39.00
2018-08-06T13:34:56.082Z,28.73
2018-08-06T13:37:24.399Z,31.73
2018-08-06T13:39:52.723Z,31.37
2018-08-06T13:42:21.120Z,32.20
2018-08-06T13:44:49.482Z,33.80
2018-08-06T13:47:17.810Z,33.70
2018-08-06T13:49:46.124Z,33.63
2018-08-06T13:52:14.467Z,34.77
2018-08-06T13:54:42.781Z,34.03
2018-08-06T13:57:11.086Z,35.80
2018-08-06T13:59:39.504Z,32.53
2018-08-06T14:02:07.714Z,30.53
2018-08-06T14:04:36.365Z,34.07
2018-08-06T14:07:04.735Z,33.00
2018-08-06T14:09:32.975Z,31.30
2018-08-06T14:12:01.279Z,31.10
2018-08-06T14:14:29.622Z,30.90
2018-08-06T14:16:58.089Z,31.57
2018-08-06T14:19:26.346Z,29.87
2018-08-06T14:21:54.445Z,30.50
2018-08-06T14:24:22.742Z,28.07
2018-08-06T14:26:51.063Z,27.97
2018-08-06T14:29:19.495Z,27.03
2018-08-06T14:31:47.858Z,27.43
2018-08-06T14:34:16.254Z,26.23
2018-08-06T14:36:44.626Z,27.37
2018-08-06T14:39:13.307Z,32.60
2018-08-06T14:41:41.725Z,27.93
2018-08-06T14:44:10.448Z,29.53
2018-08-06T14:46:39.403Z,27.10
2018-08-06T14:49:08.511Z,26.97
2018-08-06T14:51:36.831Z,24.30
2018-08-06T14:54:05.192Z,26.10
2018-08-06T14:56:33.602Z,25.07
2018-08-06T14:59:01.889Z,27.03
2018-08-06T15:01:30.214Z,25.00
2018-08-06T15:03:58.506Z,24.50
2018-08-06T15:06:26.891Z,23.53
2018-08-06T15:08:55.185Z,22.73
2018-08-06T15:11:23.787Z,23.43
2018-08-06T15:13:52.296Z,21.80
2018-08-06T15:16:20.636Z,22.47
2018-08-06T15:18:48.932Z,20.53
2018-08-06T15:21:17.248Z,24.77
2018-08-06T15:23:45.658Z,26.50
2018-08-06T15:26:14.042Z,23.77
2018-08-06T15:28:42.347Z,23.87
2018-08-06T15:31:10.704Z,23.00
2018-08-06T15:33:39.018Z,25.30
2018-08-06T15:36:07.355Z,25.70
2018-08-06T15:38:36.043Z,25.23
2018-08-06T15:41:04.619Z,24.20
2018-08-06T15:43:33.011Z,25.67
2018-08-06T15:46:01.267Z,23.40
2018-08-06T15:48:29.659Z,23.13
2018-08-06T15:50:58.122Z,21.73
2018-08-06T15:53:26.439Z,27.43
2018-08-06T15:55:54.749Z,21.87
2018-08-06T15:58:23.074Z,24.80
2018-08-06T16:00:51.398Z,28.10
2018-08-06T16:03:19.870Z,31.40
2018-08-06T16:05:48.179Z,25.77
2018-08-06T16:08:16.500Z,28.33
2018-08-06T16:10:44.842Z,26.13
2018-08-06T16:13:13.234Z,25.70
2018-08-06T16:15:41.552Z,24.13
2018-08-06T16:18:09.933Z,23.70
2018-08-06T16:20:37.964Z,23.57
2018-08-06T16:23:06.481Z,23.20
2018-08-06T16:25:34.804Z,21.70
2018-08-06T16:28:03.146Z,20.20
2018-08-06T16:30:31.462Z,20.43
2018-08-06T16:32:59.879Z,26.40
2018-08-06T16:35:28.178Z,24.00
2018-08-06T16:37:57.153Z,22.87
2018-08-06T16:40:25.262Z,24.60
2018-08-06T16:42:53.598Z,23.77
2018-08-06T16:45:21.918Z,25.40
2018-08-06T16:47:50.428Z,23.33
2018-08-06T16:50:19.075Z,22.17
2018-08-06T16:52:47.556Z,19.27
2018-08-06T16:55:15.701Z,18.67
2018-08-06T16:57:44.001Z,27.10
2018-08-06T17:00:15.967Z,26.50
2018-08-06T17:02:44.636Z,174.50
2018-08-06T17:05:13.750Z,120.57
2018-08-06T17:07:43.146Z,85.37
2018-08-06T17:10:13.807Z,73.63
2018-08-06T17:12:43.286Z,68.23
2018-08-06T17:15:12.874Z,74.97
2018-08-06T17:17:41.355Z,79.03
2018-08-06T17:20:12.828Z,76.63
2018-08-06T17:22:41.406Z,71.90
2018-08-06T17:25:10.908Z,74.10
2018-08-06T17:27:39.924Z,73.17
2018-08-06T17:30:08.669Z,67.20
2018-08-06T17:32:37.900Z,72.30
2018-08-06T17:35:07.299Z,67.43
2018-08-06T17:37:35.676Z,65.27
2018-08-06T17:40:06.382Z,57.70
2018-08-06T17:42:34.706Z,46.30
2018-08-06T17:45:03.031Z,41.90
2018-08-06T17:47:31.346Z,42.33
2018-08-06T17:49:59.704Z,37.80
2018-08-06T17:52:28.018Z,33.77
2018-08-06T17:54:56.365Z,28.00
2018-08-06T17:57:24.669Z,26.67
2018-08-06T17:59:53.024Z,25.90
2018-08-06T18:02:21.367Z,20.73
2018-08-06T18:04:49.745Z,19.37
2018-08-06T18:07:18.114Z,18.37
2018-08-06T18:09:46.455Z,17.77
2018-08-06T18:12:14.789Z,16.17
2018-08-06T18:14:43.320Z,12.07
2018-08-06T18:17:11.636Z,11.40
2018-08-06T18:19:39.957Z,12.53
2018-08-06T18:22:08.294Z,10.37
2018-08-06T18:24:36.628Z,11.73
2018-08-06T18:27:05.482Z,15.40
2018-08-06T18:29:33.835Z,11.97
2018-08-06T18:32:02.502Z,11.50
2018-08-06T18:34:30.809Z,11.03
2018-08-06T18:36:59.200Z,10.17
2018-08-06T18:39:27.642Z,8.90
2018-08-06T18:41:56.015Z,5.63
2018-08-06T18:44:24.347Z,7.07
2018-08-06T18:46:52.454Z,5.67
2018-08-06T18:49:21.043Z,10.90
2018-08-06T18:51:50.261Z,12.47
2018-08-06T18:54:19.198Z,16.13
2018-08-06T18:56:47.924Z,19.87
2018-08-06T18:59:16.648Z,13.20
2018-08-06T19:01:45.230Z,4.57
2018-08-06T19:04:14.297Z,5.63
2018-08-06T19:06:42.720Z,6.53
2018-08-06T19:09:16.439Z,7.73
2018-08-06T19:11:45.769Z,6.43
2018-08-06T19:14:21.234Z,5.73
2018-08-06T19:16:50.820Z,4.73
2018-08-06T19:19:26.440Z,2.90
2018-08-06T19:21:56.046Z,3.73
2018-08-06T19:24:29.890Z,2.97
2018-08-06T19:26:58.297Z,2.67
2018-08-06T19:29:26.761Z,3.77
2018-08-06T19:31:55.390Z,2.33
2018-08-06T19:34:23.930Z,3.00
2018-08-06T19:36:57.786Z,4.43
2018-08-06T19:39:26.453Z,16.60
2018-08-06T19:41:54.760Z,8.60
2018-08-06T19:44:23.072Z,2.80
2018-08-06T19:46:51.483Z,2.60
2018-08-06T19:49:25.139Z,2.20
2018-08-06T19:51:53.933Z,2.40
2018-08-06T19:54:22.320Z,9.43
2018-08-06T19:56:50.796Z,12.93
2018-08-06T19:59:19.155Z,5.37
2018-08-06T20:01:47.495Z,37.53
2018-08-06T20:04:15.843Z,12.67
2018-08-06T20:06:44.420Z,8.90
2018-08-06T20:09:14.311Z,5.83
2018-08-06T20:11:42.634Z,3.40
2018-08-06T20:14:11.240Z,3.87
2018-08-06T20:16:39.553Z,7.23
2018-08-06T20:19:08.726Z,4.77
2018-08-06T20:21:37.025Z,7.07
2018-08-06T20:24:06.178Z,10.27
2018-08-06T20:26:34.593Z,9.00
2018-08-06T20:29:03.148Z,4.30
2018-08-06T20:31:31.530Z,3.03
2018-08-06T20:33:59.887Z,2.77
2018-08-06T20:36:28.222Z,2.83
2018-08-06T20:38:56.589Z,3.40
2018-08-06T20:41:24.913Z,2.93
2018-08-06T20:43:53.227Z,2.60
2018-08-06T20:46:21.563Z,2.27
2018-08-06T20:48:49.939Z,2.20
2018-08-06T20:51:18.380Z,2.13
2018-08-06T20:53:46.677Z,2.27
2018-08-06T20:56:14.962Z,2.33
2018-08-06T20:58:43.017Z,16.60
2018-08-06T21:01:11.370Z,4.43
2018-08-06T21:03:39.690Z,5.40
2018-08-06T21:06:08.002Z,3.60
2018-08-06T21:08:36.307Z,5.33
2018-08-06T21:11:04.646Z,4.07
2018-08-06T21:13:32.960Z,5.27
2018-08-06T21:16:01.300Z,4.10
2018-08-06T21:18:29.672Z,2.90
2018-08-06T21:20:58.044Z,5.53
2018-08-06T21:23:26.376Z,6.27
2018-08-06T21:25:54.679Z,29.70
2018-08-06T21:28:22.889Z,95.03
2018-08-06T21:30:51.198Z,45.87
2018-08-06T21:33:19.454Z,11.63
2018-08-06T21:35:47.767Z,6.67
2018-08-06T21:38:16.089Z,5.87
2018-08-06T21:40:44.383Z,4.90
2018-08-06T21:43:12.725Z,3.90
2018-08-06T21:45:40.804Z,3.50
2018-08-06T21:48:09.095Z,3.53
2018-08-06T21:50:37.475Z,6.90
2018-08-06T21:53:05.519Z,12.63
2018-08-06T21:55:33.839Z,8.43
2018-08-06T21:58:02.224Z,6.03
2018-08-06T22:00:34.394Z,7.93
2018-08-06T22:03:04.164Z,13.07
2018-08-06T22:05:32.599Z,7.00
2018-08-06T22:08:01.182Z,5.40
2018-08-06T22:10:29.481Z,4.60
2018-08-06T22:12:57.786Z,4.17
2018-08-06T22:15:26.204Z,3.83
2018-08-06T22:17:54.599Z,3.40
2018-08-06T22:20:22.939Z,3.37
2018-08-06T22:22:51.533Z,3.80
2018-08-06T22:25:20.014Z,3.60
2018-08-06T22:27:50.222Z,5.57
2018-08-06T22:30:18.662Z,4.00
2018-08-06T22:32:47.085Z,4.13
2018-08-06T22:35:15.599Z,4.17
2018-08-06T22:37:44.010Z,3.63
2018-08-06T22:40:13.433Z,3.70
2018-08-06T22:42:42.196Z,4.00
2018-08-06T22:45:11.778Z,3.90
2018-08-06T22:47:41.554Z,4.37
2018-08-06T22:50:11.387Z,3.70
2018-08-06T22:52:40.190Z,3.90
2018-08-06T22:55:09.802Z,4.27
2018-08-06T22:57:38.126Z,11.10
2018-08-06T23:00:09.216Z,24.20
2018-08-06T23:02:37.526Z,24.07
2018-08-06T23:05:06.388Z,23.53
2018-08-06T23:07:34.772Z,15.50
2018-08-06T23:10:03.123Z,13.97
2018-08-06T23:12:31.438Z,12.23
2018-08-06T23:14:59.735Z,11.90
2018-08-06T23:17:28.088Z,10.83
2018-08-06T23:19:56.398Z,9.93
2018-08-06T23:22:24.764Z,10.13
2018-08-06T23:24:53.074Z,8.73
2018-08-06T23:27:21.369Z,9.37
2018-08-06T23:29:49.651Z,8.40
2018-08-06T23:32:17.943Z,9.80
2018-08-06T23:34:46.255Z,8.93
2018-08-06T23:37:14.555Z,10.23
2018-08-06T23:39:42.851Z,9.77
2018-08-06T23:42:11.143Z,9.70
2018-08-06T23:44:39.446Z,9.70
2018-08-06T23:47:07.741Z,9.40
2018-08-06T23:49:36.051Z,9.47
2018-08-06T23:52:04.430Z,8.90
2018-08-06T23:54:32.746Z,9.50
2018-08-06T23:57:01.200Z,8.77
2018-08-06T23:59:29.488Z,9.30
